Time;durP1;ratioP1;P1;durP2;ratioP2;P2;SDS_P1;SDS_P2;PMS_P1;PMS_P2;Temp;Humidity;BMP_temperature;BMP_pressure;BME280_temperature;BME280_humidity;BME280_pressure;Samples;Min_cycle;Max_cycle;Signal;HPM_P1;HPM_P2
2021/01/11 00:01:05;;;;;;;14.65;3.90;;;;;;;0.51;89.23;100112.81;5063997;28;20021;-69
2021/01/11 00:03:30;;;;;;;17.05;2.30;;;;;;;0.48;89.29;100103.34;5064692;28;20407;-70
2021/01/11 00:05:56;;;;;;;13.40;2.65;;;;;;;0.54;89.30;100104.34;5064459;28;20041;-70
2021/01/11 00:08:21;;;;;;;9.90;1.85;;;;;;;0.57;89.26;100112.09;5079553;28;20021;-68
2021/01/11 00:10:46;;;;;;;17.02;3.25;;;;;;;0.61;89.32;100104.56;5064277;28;20078;-69
2021/01/11 00:13:12;;;;;;;18.08;3.00;;;;;;;0.64;89.21;100098.66;5064217;28;20021;-69
2021/01/11 00:15:37;;;;;;;12.93;2.63;;;;;;;0.65;89.13;100079.09;5064210;28;20017;-69
2021/01/11 00:18:03;;;;;;;19.67;2.78;;;;;;;0.73;88.99;100082.72;5064246;28;20028;-70
2021/01/11 00:20:28;;;;;;;11.55;2.65;;;;;;;0.71;88.94;100080.13;5064003;28;20543;-71
2021/01/11 00:22:53;;;;;;;20.17;3.78;;;;;;;0.81;88.89;100080.38;5062506;28;20028;-72
2021/01/11 00:25:19;;;;;;;8.93;3.33;;;;;;;0.79;88.70;100082.00;5064423;28;20021;-71
2021/01/11 00:27:44;;;;;;;16.88;3.50;;;;;;;0.80;88.86;100074.38;5064245;28;20496;-70
2021/01/11 00:30:11;;;;;;;16.08;2.40;;;;;;;0.82;88.86;100079.53;5063790;28;20055;-70
2021/01/11 00:32:37;;;;;;;17.05;2.95;;;;;;;0.85;88.92;100071.94;5079524;28;20020;-70
2021/01/11 00:35:07;;;;;;;18.75;3.00;;;;;;;0.84;88.88;100065.13;5064249;28;20031;-70
2021/01/11 00:37:33;;;;;;;10.68;2.38;;;;;;;0.91;88.97;100061.03;5063946;28;20028;-70
2021/01/11 00:39:59;;;;;;;17.27;3.58;;;;;;;0.96;88.91;100062.00;5062782;28;20024;-70
2021/01/11 00:42:24;;;;;;;8.38;2.45;;;;;;;0.90;88.77;100039.72;5063957;28;20016;-70
2021/01/11 00:44:50;;;;;;;12.13;2.35;;;;;;;0.93;88.85;100038.91;5063464;28;20047;-70
2021/01/11 00:47:15;;;;;;;14.48;3.08;;;;;;;1.04;88.72;100039.22;5063742;28;20497;-70
2021/01/11 00:49:42;;;;;;;9.13;2.20;;;;;;;1.09;88.71;100045.28;5063540;28;20123;-70
2021/01/11 00:52:08;;;;;;;14.70;2.63;;;;;;;1.11;88.67;100038.53;5062184;28;20119;-70
2021/01/11 00:54:33;;;;;;;13.43;3.25;;;;;;;1.14;88.73;100038.59;5078452;28;20504;-70
2021/01/11 00:56:58;;;;;;;10.70;2.78;;;;;;;1.13;88.65;100038.56;5063469;28;20067;-70
2021/01/11 00:59:25;;;;;;;19.42;3.47;;;;;;;1.15;88.50;100049.69;5063385;28;20027;-70
2021/01/11 01:01:55;;;;;;;11.55;2.53;;;;;;;1.07;88.57;100032.47;5061993;28;20025;-70
2021/01/11 01:04:20;;;;;;;4.63;2.05;;;;;;;1.15;88.39;100035.19;5061735;28;20020;-71
2021/01/11 01:06:47;;;;;;;13.57;3.08;;;;;;;1.16;88.34;100028.41;5063216;28;20020;-70
2021/01/11 01:09:13;;;;;;;21.42;3.75;;;;;;;1.19;88.39;100016.56;5063365;28;20032;-68
2021/01/11 01:11:40;;;;;;;17.58;2.55;;;;;;;1.31;88.35;100030.47;5063235;28;20226;-68
2021/01/11 01:14:06;;;;;;;21.95;3.67;;;;;;;1.35;88.37;100024.59;5062836;28;20032;-69
2021/01/11 01:16:32;;;;;;;16.98;3.30;;;;;;;1.40;88.16;100022.13;5063089;28;20028;-68
2021/01/11 01:18:58;;;;;;;19.02;3.58;;;;;;;1.35;88.18;100012.66;5063292;28;20044;-69
2021/01/11 01:21:24;;;;;;;21.63;4.15;;;;;;;1.42;88.08;100008.53;5062984;28;20071;-69
2021/01/11 01:23:49;;;;;;;16.20;3.17;;;;;;;1.46;88.24;100012.91;5063317;28;20025;-70
2021/01/11 01:26:15;;;;;;;14.23;3.33;;;;;;;1.46;88.27;100010.34;5061560;28;20025;-68
2021/01/11 01:28:40;;;;;;;17.33;3.67;;;;;;;1.42;88.27;100003.41;5063114;28;20031;-69
2021/01/11 01:31:06;;;;;;;14.00;4.05;;;;;;;1.37;87.97;99994.81;5061550;28;20270;-69
2021/01/11 01:33:31;;;;;;;22.23;3.30;;;;;;;1.41;88.36;100004.25;5063233;28;20096;-70
2021/01/11 01:35:57;;;;;;;11.43;2.83;;;;;;;1.30;88.22;99983.56;5065916;28;20028;-69
2021/01/11 01:38:22;;;;;;;17.92;4.75;;;;;;;1.34;88.19;99999.84;5067292;28;20017;-70
2021/01/11 01:40:48;;;;;;;28.58;4.40;;;;;;;1.29;88.39;99983.53;5066295;28;20131;-69
2021/01/11 01:43:13;;;;;;;26.20;4.45;;;;;;;1.28;88.40;100002.28;5081660;28;20029;-70
2021/01/11 01:45:39;;;;;;;18.30;3.38;;;;;;;1.28;88.56;99992.88;5067006;28;20033;-70
2021/01/11 01:48:06;;;;;;;13.32;2.85;;;;;;;1.19;88.50;99974.78;5067050;28;20029;-71
2021/01/11 01:50:32;;;;;;;17.50;4.03;;;;;;;1.28;88.48;99989.47;5066789;28;20025;-69
2021/01/11 01:52:57;;;;;;;21.20;2.83;;;;;;;1.26;88.59;99980.91;5066923;28;20040;-69
2021/01/11 01:55:23;;;;;;;20.27;3.58;;;;;;;1.31;88.46;99982.72;5066696;28;20146;-70
2021/01/11 01:57:52;;;;;;;14.88;2.58;;;;;;;1.29;88.56;99976.72;5082056;28;20116;-70
2021/01/11 02:00:18;;;;;;;12.93;2.92;;;;;;;1.29;88.45;99974.16;5066416;28;20108;-70
2021/01/11 02:02:44;;;;;;;15.13;2.38;;;;;;;1.30;88.41;99972.44;5066260;28;20094;-70
2021/01/11 02:05:10;;;;;;;17.83;2.35;;;;;;;1.38;88.46;99976.06;5066551;28;20017;-70
2021/01/11 02:08:11;;;;;;;12.80;3.20;;;;;;;1.37;88.28;99976.91;5066374;28;20080;-70
2021/01/11 02:10:51;;;;;;;15.98;2.90;;;;;;;1.41;88.29;99975.25;5063007;28;20033;-69
2021/01/11 02:13:17;;;;;;;11.30;3.20;;;;;;;1.43;88.38;99969.34;5081683;28;20393;-70
2021/01/11 02:16:09;;;;;;;29.65;5.05;;;;;;;1.42;88.26;99962.50;5065998;28;20024;-70
2021/01/11 02:18:44;;;;;;;8.52;2.42;;;;;;;1.43;88.12;99959.13;5064799;28;20029;-70
2021/01/11 02:21:31;;;;;;;7.45;1.85;;;;;;;1.44;88.14;99947.16;5081369;28;20493;-70
2021/01/11 02:24:28;;;;;;;17.30;2.63;;;;;;;1.35;87.97;99918.03;5066107;28;20045;-70
2021/01/11 02:26:57;;;;;;;24.65;3.97;;;;;;;1.48;88.11;99931.94;5066101;28;20039;-71
2021/01/11 02:30:00;;;;;;;10.57;2.80;;;;;;;1.51;88.02;99933.69;5080973;28;20060;-71
2021/01/11 02:32:28;;;;;;;19.40;4.55;;;;;;;1.49;87.93;99927.69;5066024;28;20029;-71
2021/01/11 02:34:55;;;;;;;16.70;3.17;;;;;;;1.50;88.01;99934.53;5065952;28;20032;-71
2021/01/11 02:37:21;;;;;;;14.30;3.50;;;;;;;1.47;88.09;99926.81;5065826;28;20017;-72
2021/01/11 02:39:47;;;;;;;23.02;4.18;;;;;;;1.49;88.08;99927.69;5066222;28;20021;-71
2021/01/11 02:42:12;;;;;;;19.20;4.10;;;;;;;1.50;88.23;99926.00;5066056;28;20041;-71
2021/01/11 02:44:37;;;;;;;13.63;3.08;;;;;;;1.52;88.09;99924.34;5065462;28;20088;-71
2021/01/11 02:47:03;;;;;;;13.52;4.15;;;;;;;1.59;88.12;99929.59;5065147;28;20088;-72
2021/01/11 02:49:38;;;;;;;12.90;3.75;;;;;;;1.55;88.04;99912.44;5065358;28;20081;-71
2021/01/11 02:52:18;;;;;;;9.32;2.90;;;;;;;1.61;87.85;99909.16;5065350;28;20118;-72
2021/01/11 02:54:51;;;;;;;7.63;2.55;;;;;;;1.61;87.88;99911.72;5065303;28;20053;-71
2021/01/11 02:57:23;;;;;;;13.13;3.88;;;;;;;1.60;87.74;99905.75;5065418;28;20035;-71
2021/01/11 03:00:00;;;;;;;;;;;;;;;1.65;87.83;99899.84;5065528;28;20025;-70
2021/01/11 03:02:28;;;;;;;19.50;4.03;;;;;;;1.62;87.59;99898.09;5065327;28;20365;-70
2021/01/11 03:04:54;;;;;;;16.77;4.32;;;;;;;1.64;87.87;99893.88;5080494;28;20029;-69
2021/01/11 03:07:19;;;;;;;12.63;3.53;;;;;;;1.64;87.85;99896.44;5065356;28;20055;-69
2021/01/11 03:09:46;;;;;;;16.85;3.95;;;;;;;1.67;87.90;99886.25;5065297;28;20489;-69
2021/01/11 03:12:12;;;;;;;12.50;3.05;;;;;;;1.67;87.58;99893.94;5063901;28;20599;-69
2021/01/11 03:14:38;;;;;;;12.98;3.85;;;;;;;1.68;88.05;99872.63;5064957;28;20032;-69
2021/01/11 03:17:04;;;;;;;15.73;3.38;;;;;;;1.66;87.79;99869.16;5065095;28;20021;-69
2021/01/11 03:19:29;;;;;;;16.88;3.45;;;;;;;1.68;87.83;99864.94;5065070;28;20041;-70
2021/01/11 03:21:55;;;;;;;15.27;3.97;;;;;;;1.69;87.84;99856.41;5063881;28;20029;-68
2021/01/11 03:24:21;;;;;;;12.55;3.72;;;;;;;1.68;87.67;99857.25;5065270;28;20071;-68
2021/01/11 03:26:48;;;;;;;13.18;3.53;;;;;;;1.69;87.67;99850.47;5065058;28;20017;-70
2021/01/11 03:29:15;;;;;;;9.18;2.97;;;;;;;1.71;87.69;99844.53;5064852;28;20029;-70
2021/01/11 03:31:41;;;;;;;22.85;4.05;;;;;;;1.72;87.77;99845.41;5065070;28;20465;-69
2021/01/11 03:34:08;;;;;;;12.85;2.75;;;;;;;1.73;87.72;99847.09;5065088;28;20036;-69
2021/01/11 03:36:33;;;;;;;19.50;3.28;;;;;;;1.78;87.59;99831.84;5065244;28;20024;-69
2021/01/11 03:38:59;;;;;;;15.65;3.08;;;;;;;1.75;87.73;99832.66;5064835;28;20025;-69
2021/01/11 03:41:24;;;;;;;23.92;4.03;;;;;;;1.81;87.58;99821.66;5064778;28;20036;-69
2021/01/11 03:43:50;;;;;;;21.75;3.58;;;;;;;1.85;87.78;99820.91;5064631;28;20340;-70
2021/01/11 03:46:17;;;;;;;19.35;3.08;;;;;;;1.83;87.67;99809.75;5064494;28;20032;-70
2021/01/11 03:48:46;;;;;;;14.27;2.78;;;;;;;1.86;87.26;99820.03;5064884;28;20458;-70
2021/01/11 03:51:13;;;;;;;14.68;3.13;;;;;;;1.87;87.24;99810.69;5065295;28;20116;-70
2021/01/11 03:53:39;;;;;;;15.35;3.58;;;;;;;1.87;87.57;99805.56;5064444;28;20036;-70
2021/01/11 03:56:06;;;;;;;8.88;2.08;;;;;;;1.83;87.06;99802.06;5064926;28;20021;-72
2021/01/11 03:58:31;;;;;;;13.98;2.40;;;;;;;1.88;87.37;99805.59;5063808;28;20021;-70
2021/01/11 04:00:59;;;;;;;12.80;2.10;;;;;;;1.77;87.23;99797.72;5064322;28;20180;-70
2021/01/11 04:03:26;;;;;;;6.25;1.25;;;;;;;1.78;87.40;99789.19;5064492;28;20021;-70
2021/01/11 04:05:51;;;;;;;4.35;1.13;;;;;;;1.73;87.47;99783.13;5064395;28;20017;-71
2021/01/11 04:08:17;;;;;;;12.63;2.40;;;;;;;1.60;87.34;99771.81;5064219;28;20028;-71
2021/01/11 04:10:42;;;;;;;8.57;2.40;;;;;;;1.51;87.42;99756.28;5064234;28;20024;-71
2021/01/11 04:13:08;;;;;;;10.10;2.05;;;;;;;1.58;87.54;99778.63;5079692;28;20044;-71
2021/01/11 04:15:33;;;;;;;6.88;1.67;;;;;;;1.54;87.61;99767.47;5063918;28;20021;-72
2021/01/11 04:17:59;;;;;;;11.57;2.10;;;;;;;1.51;87.67;99744.38;5062579;28;20200;-72
2021/01/11 04:20:25;;;;;;;12.73;3.00;;;;;;;1.38;87.82;99744.97;5062764;28;20048;-73
2021/01/11 04:22:50;;;;;;;14.07;2.50;;;;;;;1.44;87.91;99761.31;5063830;28;20100;-73
2021/01/11 04:25:17;;;;;;;12.07;2.13;;;;;;;1.44;88.16;99745.94;5064104;28;20021;-72
2021/01/11 04:27:42;;;;;;;14.98;2.78;;;;;;;1.44;88.18;99735.72;5064182;28;20077;-72
2021/01/11 04:30:10;;;;;;;15.00;2.80;;;;;;;1.43;88.27;99726.34;5062528;28;20043;-73
2021/01/11 04:32:36;;;;;;;12.90;2.47;;;;;;;1.43;88.32;99730.56;5063862;28;20032;-73
2021/01/11 04:35:09;;;;;;;13.38;2.60;;;;;;;1.36;88.13;99716.81;5063837;28;20025;-73
2021/01/11 04:37:38;;;;;;;11.30;1.92;;;;;;;1.31;88.34;99713.31;5064043;28;20052;-74
2021/01/11 04:40:07;;;;;;;15.70;3.20;;;;;;;1.31;88.54;99708.22;5079327;28;20054;-73
2021/01/11 04:43:03;;;;;;;18.60;2.80;;;;;;;1.29;88.62;99702.19;5062374;28;20048;-73
2021/01/11 04:45:28;;;;;;;11.38;2.42;;;;;;;1.30;88.52;99694.56;5063664;28;20107;-73
2021/01/11 04:47:59;;;;;;;7.28;1.95;;;;;;;1.30;88.78;99697.09;5063793;28;20539;-73
2021/01/11 04:50:26;;;;;;;14.60;3.70;;;;;;;1.31;88.46;99687.75;5063733;28;20096;-71
2021/01/11 04:52:52;;;;;;;18.65;2.47;;;;;;;1.29;88.60;99685.16;5063730;28;20025;-71
2021/01/11 04:55:19;;;;;;;8.52;2.10;;;;;;;1.24;88.74;99679.09;5063522;28;20049;-74
2021/01/11 04:57:56;;;;;;;13.02;2.70;;;;;;;1.24;88.86;99671.44;5063892;28;20025;-73
2021/01/11 05:00:26;;;;;;;12.57;2.05;;;;;;;1.19;88.70;99656.00;5063912;28;20024;-71
2021/01/11 05:03:09;;;;;;;11.80;2.40;;;;;;;1.23;88.87;99646.69;5063764;28;20031;-71
2021/01/11 05:05:39;;;;;;;17.63;3.10;;;;;;;1.19;88.80;99655.13;5063746;28;20044;-71
2021/01/11 05:08:06;;;;;;;18.88;2.20;;;;;;;1.11;88.89;99652.44;5063564;28;20114;-72
2021/01/11 05:10:33;;;;;;;14.45;1.88;;;;;;;1.04;88.74;99660.84;5063431;28;20481;-72
2021/01/11 05:13:02;;;;;;;19.30;2.53;;;;;;;0.99;88.70;99641.16;5078631;28;20028;-71
2021/01/11 05:15:29;;;;;;;15.05;1.88;;;;;;;0.89;88.84;99639.28;5063211;28;20017;-72
2021/01/11 05:17:55;;;;;;;7.85;1.55;;;;;;;0.80;88.89;99639.94;5063308;28;20147;-72
2021/01/11 05:20:26;;;;;;;7.00;1.52;;;;;;;0.76;89.00;99624.53;5063528;28;20419;-71
2021/01/11 05:22:53;;;;;;;6.47;1.48;;;;;;;0.72;89.00;99616.81;5062157;28;20027;-70
2021/01/11 05:25:24;;;;;;;12.02;2.33;;;;;;;0.72;89.15;99629.59;5063577;28;20053;-69
2021/01/11 05:28:16;;;;;;;5.43;2.10;;;;;;;0.77;89.05;99618.59;5063324;28;20129;-71
2021/01/11 05:30:45;;;;;;;8.05;1.70;;;;;;;0.68;89.27;99612.47;5063361;28;20031;-70
2021/01/11 05:33:21;;;;;;;7.88;1.73;;;;;;;0.70;89.41;99608.25;5063451;28;20055;-72
2021/01/11 05:36:00;;;;;;;3.85;1.30;;;;;;;0.71;89.48;99593.78;5063322;28;20031;-70
2021/01/11 05:38:33;;;;;;;2.13;0.88;;;;;;;0.71;89.60;99599.75;5063082;28;20020;-72
2021/01/11 05:41:17;;;;;;;7.75;1.98;;;;;;;0.77;89.61;99587.94;5062856;28;20025;-71
2021/01/11 05:43:44;;;;;;;1.55;0.80;;;;;;;0.77;89.59;99572.63;5061671;28;20017;-71
2021/01/11 05:46:27;;;;;;;11.10;2.00;;;;;;;0.86;89.57;99575.34;5063105;28;20029;-70
2021/01/11 05:48:59;;;;;;;12.48;2.00;;;;;;;0.82;89.12;99561.63;5063767;28;20025;-72
2021/01/11 05:51:26;;;;;;;12.35;2.38;;;;;;;0.77;89.52;99564.94;5063464;28;20025;-70
2021/01/11 05:53:51;;;;;;;14.15;1.67;;;;;;;0.71;89.59;99558.00;5063342;28;20044;-69
2021/01/11 05:56:17;;;;;;;8.70;1.42;;;;;;;0.72;89.65;99552.06;5063538;28;20032;-68
2021/01/11 05:59:05;;;;;;;10.32;1.83;;;;;;;0.69;89.52;99545.22;5063340;28;20021;-69
2021/01/11 06:01:32;;;;;;;3.00;1.42;;;;;;;0.66;89.71;99545.16;5062881;28;20047;-69
2021/01/11 06:03:57;;;;;;;11.65;1.30;;;;;;;0.63;89.62;99524.66;5063386;28;20021;-68
2021/01/11 06:06:24;;;;;;;4.72;0.85;;;;;;;0.58;89.50;99526.28;5063129;28;20077;-69
2021/01/11 06:08:52;;;;;;;5.72;1.80;;;;;;;0.53;89.17;99522.78;5063296;28;20097;-68
2021/01/11 06:11:21;;;;;;;6.18;0.90;;;;;;;0.44;89.48;99523.47;5062932;28;20104;-69
2021/01/11 06:13:48;;;;;;;3.83;1.10;;;;;;;0.38;89.73;99519.13;5063292;28;20023;-69
2021/01/11 06:16:16;;;;;;;1.88;0.68;;;;;;;0.38;89.67;99514.00;5062828;28;20032;-69
2021/01/11 06:18:42;;;;;;;7.97;1.20;;;;;;;0.35;89.73;99513.97;5063014;28;20500;-69
2021/01/11 06:21:10;;;;;;;7.10;0.90;;;;;;;0.37;89.80;99514.81;5064044;28;20025;-70
2021/01/11 06:23:36;;;;;;;3.53;0.82;;;;;;;0.35;89.59;99508.84;5066907;28;20021;-69
2021/01/11 06:26:28;;;;;;;5.15;1.00;;;;;;;0.35;89.21;99503.75;5066681;28;20036;-70
2021/01/11 06:28:54;;;;;;;1.08;0.80;;;;;;;0.27;89.10;99495.06;5066236;28;20071;-69
2021/01/11 06:31:26;;;;;;;0.90;0.47;;;;;;;0.32;89.42;99499.41;5066067;28;20025;-69
2021/01/11 06:33:52;;;;;;;3.45;1.23;;;;;;;0.22;89.37;99474.56;5081774;28;20078;-71
2021/01/11 06:36:22;;;;;;;5.40;1.10;;;;;;;0.23;89.60;99482.25;5065176;28;20048;-72
2021/01/11 06:38:48;;;;;;;3.15;1.00;;;;;;;0.29;89.39;99478.09;5066265;28;20113;-72
2021/01/11 06:41:19;;;;;;;2.97;0.88;;;;;;;0.23;89.93;99472.03;5066320;28;20085;-72
2021/01/11 06:43:45;;;;;;;1.80;0.80;;;;;;;0.24;90.17;99455.00;5065967;28;20035;-71
2021/01/11 06:46:42;;;;;;;4.22;0.88;;;;;;;0.38;89.96;99464.63;5065675;28;20345;-71
2021/01/11 06:49:24;;;;;;;3.65;1.17;;;;;;;0.47;89.98;99446.91;5065740;28;20060;-70
2021/01/11 06:52:00;;;;;;;11.40;1.20;;;;;;;0.41;90.54;99444.25;5065822;28;20029;-71
2021/01/11 06:54:34;;;;;;;5.03;1.20;;;;;;;0.58;90.42;99441.97;5064225;28;20037;-70
2021/01/11 06:57:07;;;;;;;1.23;0.80;;;;;;;0.65;90.75;99432.72;5065664;28;20330;-70
2021/01/11 06:59:36;;;;;;;2.80;1.00;;;;;;;0.83;90.50;99425.34;5064036;28;20031;-71
2021/01/11 07:02:20;;;;;;;6.47;1.52;;;;;;;0.85;91.00;99427.94;5080885;28;20013;-71
2021/01/11 07:04:46;;;;;;;7.50;1.70;;;;;;;0.91;91.02;99417.78;5065547;28;20028;-70
2021/01/11 07:07:19;;;;;;;7.10;2.47;;;;;;;1.05;91.08;99414.59;5065514;28;20035;-70
2021/01/11 07:09:49;;;;;;;12.60;1.90;;;;;;;1.18;91.03;99407.97;5065541;28;20091;-70
2021/01/11 07:12:18;;;;;;;16.58;2.83;;;;;;;1.32;91.19;99406.47;5065677;28;20047;-70
2021/01/11 07:15:01;;;;;;;14.65;2.97;;;;;;;1.46;91.09;99401.50;5065176;28;20028;-67
2021/01/11 07:17:40;;;;;;;6.97;2.53;;;;;;;1.59;91.31;99391.41;5065359;28;20020;-69
2021/01/11 07:20:08;;;;;;;6.93;2.60;;;;;;;1.71;91.20;99388.16;5080799;28;20613;-73
2021/01/11 07:22:33;;;;;;;15.15;2.67;;;;;;;1.81;91.25;99382.28;5063470;28;20033;-69
2021/01/11 07:25:06;;;;;;;10.52;3.05;;;;;;;1.86;91.16;99369.53;5064747;28;20116;-69
2021/01/11 07:27:31;;;;;;;13.48;2.63;;;;;;;1.97;91.20;99372.19;5064034;28;20033;-70
2021/01/11 07:29:57;;;;;;;13.25;2.63;;;;;;;2.03;91.17;99371.44;5064827;28;20179;-71
2021/01/11 07:32:23;;;;;;;12.82;2.40;;;;;;;2.09;91.18;99366.38;5064639;28;20029;-70
2021/01/11 07:34:48;;;;;;;14.15;2.10;;;;;;;2.10;91.14;99351.00;5064003;28;20025;-71
2021/01/11 07:37:14;;;;;;;0.20;0.20;;;;;;;2.16;91.05;99357.88;5079325;28;20365;-71
2021/01/11 07:39:40;;;;;;;0.20;0.20;;;;;;;2.18;91.20;99340.84;5064730;28;20028;-71
2021/01/11 07:42:07;;;;;;;0.30;0.30;;;;;;;2.24;91.12;99345.13;5064831;28;20355;-70
2021/01/11 07:44:34;;;;;;;0.20;0.20;;;;;;;2.28;91.11;99343.47;5064150;28;20021;-70
2021/01/11 07:47:05;;;;;;;0.20;0.20;;;;;;;2.32;91.09;99317.03;5064250;28;20028;-71
2021/01/11 07:49:33;;;;;;;0.30;0.30;;;;;;;2.31;91.10;99323.00;5064879;28;20025;-70
2021/01/11 07:52:04;;;;;;;0.20;0.20;;;;;;;2.38;91.03;99317.06;5064245;28;20025;-70
2021/01/11 07:54:30;;;;;;;0.20;0.20;;;;;;;2.38;90.98;99321.34;5064429;28;20049;-71
2021/01/11 07:56:58;;;;;;;0.22;0.22;;;;;;;2.35;91.03;99312.78;5064842;28;20042;-70
2021/01/11 07:59:24;;;;;;;0.20;0.20;;;;;;;2.45;91.12;99311.16;5064254;28;20469;-69
2021/01/11 08:01:53;;;;;;;0.20;0.20;;;;;;;2.49;91.03;99304.34;5064337;28;20036;-71
2021/01/11 08:04:19;;;;;;;0.20;0.20;;;;;;;2.49;91.10;99306.91;5064029;28;20021;-70
2021/01/11 08:06:47;;;;;;;0.30;0.30;;;;;;;2.53;91.14;99302.66;5064212;28;20025;-69
2021/01/11 08:09:13;;;;;;;0.20;0.20;;;;;;;2.54;91.05;99289.00;5079751;28;20017;-69
2021/01/11 08:11:42;;;;;;;0.20;0.20;;;;;;;2.56;91.07;99294.97;5079365;28;20025;-70
2021/01/11 08:14:08;;;;;;;0.20;0.20;;;;;;;2.58;91.15;99290.75;5063687;28;20354;-70
2021/01/11 08:16:35;;;;;;;0.20;0.20;;;;;;;2.60;91.10;99283.94;5062841;28;20032;-71
2021/01/11 08:19:08;;;;;;;0.20;0.20;;;;;;;2.60;91.14;99282.19;5078798;28;20444;-70
2021/01/11 08:21:33;;;;;;;0.30;0.30;;;;;;;2.64;91.11;99274.53;5063999;28;20024;-70
2021/01/11 08:24:07;;;;;;;0.20;0.20;;;;;;;2.66;91.02;99275.41;5063926;28;20020;-71
2021/01/11 08:26:37;;;;;;;0.20;0.20;;;;;;;2.63;91.29;99253.19;5079518;28;20064;-69
2021/01/11 08:29:03;;;;;;;0.20;0.20;;;;;;;2.69;91.05;99255.78;5064205;28;20050;-70
2021/01/11 08:31:29;;;;;;;0.20;0.20;;;;;;;2.71;91.12;99271.16;5063595;28;20056;-69
2021/01/11 08:33:56;;;;;;;0.20;0.20;;;;;;;2.72;91.10;99258.34;5064040;28;20029;-70
2021/01/11 08:36:24;;;;;;;0.20;0.20;;;;;;;2.77;91.37;99263.50;5063005;28;20096;-71
2021/01/11 08:39:04;;;;;;;0.28;0.28;;;;;;;2.77;91.14;99249.81;5062733;28;20021;-70
2021/01/11 08:41:33;;;;;;;0.20;0.20;;;;;;;2.78;91.12;99241.31;5063539;28;20032;-69
2021/01/11 08:43:58;;;;;;;0.20;0.20;;;;;;;2.79;91.25;99241.31;5063023;28;20512;-69
2021/01/11 08:46:23;;;;;;;0.28;0.28;;;;;;;2.82;91.13;99243.03;5063367;28;20032;-69
2021/01/11 08:48:49;;;;;;;0.20;0.20;;;;;;;2.84;91.23;99243.91;5063692;28;20023;-69
2021/01/11 08:51:25;;;;;;;0.30;0.30;;;;;;;2.84;91.18;99233.63;5063709;28;20044;-72
2021/01/11 08:53:50;;;;;;;0.25;0.25;;;;;;;2.88;91.17;99242.19;5078990;28;20087;-70
2021/01/11 08:56:27;;;;;;;0.30;0.30;;;;;;;2.89;91.33;99224.25;5063895;28;20044;-70
2021/01/11 08:58:53;;;;;;;0.30;0.30;;;;;;;2.92;91.21;99224.28;5063969;28;20090;-70
2021/01/11 09:01:26;;;;;;;0.30;0.30;;;;;;;2.92;91.14;99196.06;5063309;28;20468;-69
2021/01/11 09:03:58;;;;;;;0.20;0.20;;;;;;;2.93;91.30;99223.41;5062451;28;20479;-72
2021/01/11 09:06:35;;;;;;;0.30;0.30;;;;;;;2.95;91.12;99221.72;5063763;28;20172;-71
2021/01/11 09:09:18;;;;;;;0.30;0.30;;;;;;;2.95;91.06;99214.03;5063725;28;20059;-71
2021/01/11 09:11:46;;;;;;;0.20;0.20;;;;;;;2.98;91.18;99202.91;5078792;28;20029;-70
2021/01/11 09:14:19;;;;;;;0.30;0.30;;;;;;;2.95;91.13;99196.09;5063716;28;20084;-73
2021/01/11 09:16:54;;;;;;;0.20;0.20;;;;;;;3.01;91.19;99194.38;5063394;28;20071;-70
2021/01/11 09:19:19;;;;;;;0.20;0.20;;;;;;;3.05;91.30;99190.97;5062355;28;20031;-70
2021/01/11 09:22:05;;;;;;;0.20;0.20;;;;;;;3.06;91.16;99185.00;5078829;28;20025;-70
2021/01/11 09:24:32;;;;;;;0.30;0.30;;;;;;;3.10;91.28;99186.69;5063724;28;20029;-70
2021/01/11 09:26:57;;;;;;;0.20;0.20;;;;;;;3.08;91.27;99179.00;5063497;28;20021;-72
2021/01/11 09:29:24;;;;;;;0.20;0.20;;;;;;;3.08;91.35;99168.75;5061880;28;20031;-73
2021/01/11 09:31:50;;;;;;;0.30;0.30;;;;;;;3.14;91.22;99173.03;5062951;28;20028;-71
2021/01/11 09:34:16;;;;;;;0.20;0.20;;;;;;;3.16;91.29;99168.78;5063419;28;20021;-70
2021/01/11 09:36:42;;;;;;;0.20;0.20;;;;;;;3.17;91.36;99164.50;5063447;28;20024;-71
2021/01/11 09:39:10;;;;;;;0.30;0.30;;;;;;;3.21;91.29;99150.84;5062024;28;20068;-70
2021/01/11 09:41:55;;;;;;;0.30;0.30;;;;;;;3.22;91.21;99143.16;5062294;28;20021;-69
2021/01/11 09:44:21;;;;;;;0.30;0.30;;;;;;;3.24;91.31;99125.19;5063260;28;20032;-70
2021/01/11 09:46:53;;;;;;;0.30;0.30;;;;;;;3.20;91.28;99124.31;5062902;28;20047;-70
2021/01/11 09:49:20;;;;;;;0.30;0.30;;;;;;;3.28;91.29;99116.63;5063473;28;20131;-70
2021/01/11 09:51:45;;;;;;;0.20;0.20;;;;;;;3.30;91.22;99119.19;5063145;28;20029;-71
2021/01/11 09:54:11;;;;;;;0.30;0.30;;;;;;;3.31;91.42;99124.31;5063152;28;20053;-70
2021/01/11 09:56:39;;;;;;;0.30;0.30;;;;;;;3.35;91.38;99117.50;5065026;28;20515;-72
2021/01/11 09:59:08;;;;;;;0.20;0.20;;;;;;;3.37;91.26;99099.53;5082724;28;20056;-70
2021/01/11 10:01:41;;;;;;;0.30;0.30;;;;;;;3.39;91.25;99090.09;5066731;28;20036;-71
2021/01/11 10:04:07;;;;;;;0.20;0.20;;;;;;;3.33;91.40;99091.84;5066952;28;20025;-70
2021/01/11 10:06:43;;;;;;;0.22;0.22;;;;;;;3.40;91.32;99100.41;5067194;28;20105;-71
2021/01/11 10:09:13;;;;;;;0.30;0.30;;;;;;;3.42;91.55;99090.13;5067136;28;20041;-69
2021/01/11 10:11:43;;;;;;;0.30;0.30;;;;;;;3.41;91.31;99071.31;5066908;28;20021;-73
2021/01/11 10:14:09;;;;;;;0.20;0.20;;;;;;;3.47;91.40;99085.84;5067118;28;20029;-69
2021/01/11 10:16:42;;;;;;;0.30;0.30;;;;;;;3.46;91.55;99074.75;5066771;28;20300;-70
2021/01/11 10:19:16;;;;;;;0.30;0.30;;;;;;;3.51;91.47;99069.59;5064872;28;20040;-70
2021/01/11 10:21:41;;;;;;;0.28;0.28;;;;;;;3.51;91.41;99066.16;5066612;28;20079;-70
2021/01/11 10:24:07;;;;;;;0.20;0.20;;;;;;;3.50;91.34;99067.03;5066759;28;20433;-70
2021/01/11 10:26:34;;;;;;;0.20;0.20;;;;;;;3.53;91.44;99067.88;5066616;28;20036;-70
2021/01/11 10:29:01;;;;;;;0.30;0.30;;;;;;;3.54;91.46;99063.59;5066731;28;20036;-70
2021/01/11 10:31:26;;;;;;;0.30;0.30;;;;;;;3.55;91.41;99062.72;5066177;28;20032;-68
2021/01/11 10:33:52;;;;;;;0.20;0.20;;;;;;;3.57;91.49;99058.47;5066344;28;20082;-71
2021/01/11 10:36:18;;;;;;;0.28;0.28;;;;;;;3.57;91.58;99041.34;5066493;28;20164;-70
2021/01/11 10:38:44;;;;;;;0.30;0.30;;;;;;;3.58;91.45;99037.91;5066572;28;20147;-68
2021/01/11 10:41:15;;;;;;;0.20;0.20;;;;;;;3.59;91.45;99026.78;5066523;28;20020;-69
2021/01/11 10:43:41;;;;;;;0.30;0.30;;;;;;;3.57;91.36;99036.22;5066407;28;20563;-73
2021/01/11 10:46:11;;;;;;;0.30;0.30;;;;;;;3.62;91.45;99005.41;5065897;28;20052;-71
2021/01/11 10:48:37;;;;;;;0.30;0.30;;;;;;;3.66;91.52;99017.38;5066102;28;20021;-73
2021/01/11 10:51:04;;;;;;;0.30;0.30;;;;;;;3.64;91.50;99016.53;5064347;28;20017;-73
2021/01/11 10:53:30;;;;;;;0.20;0.20;;;;;;;3.72;91.63;99009.66;5079606;28;20028;-72
2021/01/11 10:55:55;;;;;;;0.30;0.30;;;;;;;3.72;91.53;99007.09;5065351;28;20029;-73
2021/01/11 10:58:20;;;;;;;0.20;0.20;;;;;;;3.76;91.72;98999.38;5065942;28;20031;-73
2021/01/11 11:00:46;;;;;;;0.30;0.30;;;;;;;3.78;91.56;98995.97;5065609;28;20045;-73
2021/01/11 11:03:11;;;;;;;0.25;0.25;;;;;;;3.79;91.66;98992.53;5065604;28;20021;-72
2021/01/11 11:05:36;;;;;;;0.20;0.20;;;;;;;3.83;91.36;98988.25;5065640;28;20484;-70
2021/01/11 11:08:02;;;;;;;0.20;0.20;;;;;;;3.81;91.75;98983.09;5080709;28;20028;-72
2021/01/11 11:10:27;;;;;;;0.22;0.22;;;;;;;3.82;91.57;98983.94;5065570;28;20037;-72
2021/01/11 11:13:06;;;;;;;0.30;0.30;;;;;;;3.82;91.51;98978.81;5065580;28;20017;-76
2021/01/11 11:15:31;;;;;;;0.30;0.30;;;;;;;3.85;91.55;98978.78;5065133;28;20025;-72
2021/01/11 11:17:56;;;;;;;0.30;0.30;;;;;;;3.86;91.36;98970.25;5065165;28;20135;-70
2021/01/11 11:20:22;;;;;;;0.22;0.22;;;;;;;3.84;91.62;98971.97;5065270;28;20043;-72
2021/01/11 11:22:47;;;;;;;0.20;0.20;;;;;;;3.84;91.64;98952.28;5064954;28;20036;-71
2021/01/11 11:25:13;;;;;;;0.30;0.30;;;;;;;3.88;91.49;98942.88;5065427;28;20029;-71
2021/01/11 11:27:40;;;;;;;0.20;0.20;;;;;;;3.90;91.60;98956.53;5065383;28;20029;-71
2021/01/11 11:30:06;;;;;;;0.20;0.20;;;;;;;3.90;91.53;98943.69;5063097;28;20032;-71
2021/01/11 11:32:34;;;;;;;0.30;0.30;;;;;;;3.92;91.55;98941.13;5061361;28;20029;-71
2021/01/11 11:34:59;;;;;;;0.30;0.30;;;;;;;3.89;91.54;98926.59;5062737;28;20100;-72
2021/01/11 11:37:25;;;;;;;0.30;0.30;;;;;;;3.92;91.66;98929.13;5064858;28;20032;-71
2021/01/11 11:39:50;;;;;;;0.20;0.20;;;;;;;3.94;91.39;98916.28;5064969;28;20094;-70
2021/01/11 11:42:15;;;;;;;0.20;0.20;;;;;;;3.94;91.65;98932.56;5064601;28;20024;-70
2021/01/11 11:44:41;;;;;;;0.20;0.20;;;;;;;3.90;91.45;98912.88;5064956;28;20041;-71